X  Schlie├čen Metar Luftfahrt Wetterdaten     LOWW Vienna International Airport
Temperatur
25°C Temperatur
14°C Taupunkt
51% Feuchtigkeit



Wind
13 KM/H
8 MPH
4 M/S
7 KTS



150°
SSO
Aktuelle Wetterlage

Klar Klar
Luftdruck 1010.92 (hPa) - 29.85 (inHg)
Sichtweite 6.2 (Meile) - 10 (km)
Flughafen
Flughafen Code LOWW

Position : Vienna International Airport
Entfernung: 69 (km)

Metar:
LOWW 180620Z 15007KT CAVOK 25/14 Q1011 NOSIG

Zeit: 18-08-2022 08:20 CEST